sensor_id;sensor_type;location;lat;lon;timestamp;P1;durP1;ratioP1;P2;durP2;ratioP2
45254;SDS011;30989;52.078;21.014;2022-08-01T00:01:39;7.28;;;2.75;;
45254;SDS011;30989;52.078;21.014;2022-08-01T00:04:04;3.25;;;2.13;;
45254;SDS011;30989;52.078;21.014;2022-08-01T00:06:30;6.68;;;2.65;;
45254;SDS011;30989;52.078;21.014;2022-08-01T00:08:56;7.32;;;1.80;;
45254;SDS011;30989;52.078;21.014;2022-08-01T00:11:21;3.88;;;2.50;;
45254;SDS011;30989;52.078;21.014;2022-08-01T00:13:47;4.50;;;2.40;;
45254;SDS011;30989;52.078;21.014;2022-08-01T00:16:12;6.55;;;1.85;;
45254;SDS011;30989;52.078;21.014;2022-08-01T00:18:38;6.13;;;2.53;;
45254;SDS011;30989;52.078;21.014;2022-08-01T00:21:04;3.40;;;1.95;;
45254;SDS011;30989;52.078;21.014;2022-08-01T00:23:29;11.18;;;2.50;;
45254;SDS011;30989;52.078;21.014;2022-08-01T00:25:55;4.40;;;2.63;;
45254;SDS011;30989;52.078;21.014;2022-08-01T00:28:21;10.43;;;2.42;;
45254;SDS011;30989;52.078;21.014;2022-08-01T00:30:46;6.30;;;3.03;;
45254;SDS011;30989;52.078;21.014;2022-08-01T00:33:12;5.32;;;2.33;;
45254;SDS011;30989;52.078;21.014;2022-08-01T00:35:37;7.13;;;2.10;;
45254;SDS011;30989;52.078;21.014;2022-08-01T00:38:03;3.58;;;1.83;;
45254;SDS011;30989;52.078;21.014;2022-08-01T00:40:28;3.47;;;2.10;;
45254;SDS011;30989;52.078;21.014;2022-08-01T00:42:54;6.20;;;3.05;;
45254;SDS011;30989;52.078;21.014;2022-08-01T00:45:19;7.53;;;2.33;;
45254;SDS011;30989;52.078;21.014;2022-08-01T00:47:45;4.18;;;2.42;;
45254;SDS011;30989;52.078;21.014;2022-08-01T00:50:10;4.90;;;1.88;;
45254;SDS011;30989;52.078;21.014;2022-08-01T00:52:36;4.68;;;2.47;;
45254;SDS011;30989;52.078;21.014;2022-08-01T00:55:02;5.30;;;1.90;;
45254;SDS011;30989;52.078;21.014;2022-08-01T00:57:28;11.93;;;2.80;;
45254;SDS011;30989;52.078;21.014;2022-08-01T00:59:54;8.13;;;2.40;;
45254;SDS011;30989;52.078;21.014;2022-08-01T01:02:21;9.50;;;2.35;;
45254;SDS011;30989;52.078;21.014;2022-08-01T01:04:46;6.60;;;2.50;;
45254;SDS011;30989;52.078;21.014;2022-08-01T01:07:23;5.13;;;2.33;;
45254;SDS011;30989;52.078;21.014;2022-08-01T01:09:58;12.48;;;2.63;;
45254;SDS011;30989;52.078;21.014;2022-08-01T01:15:30;4.05;;;2.35;;
45254;SDS011;30989;52.078;21.014;2022-08-01T01:21:01;5.47;;;2.13;;
45254;SDS011;30989;52.078;21.014;2022-08-01T01:23:39;6.13;;;2.40;;
45254;SDS011;30989;52.078;21.014;2022-08-01T01:26:17;5.05;;;2.15;;
45254;SDS011;30989;52.078;21.014;2022-08-01T01:28:59;5.45;;;2.05;;
45254;SDS011;30989;52.078;21.014;2022-08-01T01:31:28;5.95;;;2.00;;
45254;SDS011;30989;52.078;21.014;2022-08-01T01:33:58;4.95;;;2.55;;
45254;SDS011;30989;52.078;21.014;2022-08-01T01:36:24;4.10;;;2.33;;
45254;SDS011;30989;52.078;21.014;2022-08-01T01:38:51;6.97;;;2.42;;
45254;SDS011;30989;52.078;21.014;2022-08-01T01:41:18;6.57;;;2.05;;
45254;SDS011;30989;52.078;21.014;2022-08-01T01:43:46;11.32;;;2.35;;
45254;SDS011;30989;52.078;21.014;2022-08-01T01:46:15;4.93;;;2.42;;
45254;SDS011;30989;52.078;21.014;2022-08-01T01:48:44;5.35;;;1.70;;
45254;SDS011;30989;52.078;21.014;2022-08-01T01:51:11;6.88;;;2.30;;
45254;SDS011;30989;52.078;21.014;2022-08-01T01:53:39;4.32;;;2.05;;
45254;SDS011;30989;52.078;21.014;2022-08-01T01:56:05;6.68;;;2.40;;
45254;SDS011;30989;52.078;21.014;2022-08-01T01:58:33;5.78;;;2.22;;
45254;SDS011;30989;52.078;21.014;2022-08-01T02:01:00;4.85;;;2.50;;
45254;SDS011;30989;52.078;21.014;2022-08-01T02:03:30;8.35;;;2.75;;
45254;SDS011;30989;52.078;21.014;2022-08-01T02:05:57;5.97;;;2.30;;
45254;SDS011;30989;52.078;21.014;2022-08-01T02:08:25;10.27;;;2.22;;
45254;SDS011;30989;52.078;21.014;2022-08-01T02:10:54;9.88;;;2.25;;
45254;SDS011;30989;52.078;21.014;2022-08-01T02:13:39;8.38;;;3.97;;
45254;SDS011;30989;52.078;21.014;2022-08-01T02:16:06;7.55;;;2.60;;
45254;SDS011;30989;52.078;21.014;2022-08-01T02:18:36;7.25;;;2.15;;
45254;SDS011;30989;52.078;21.014;2022-08-01T02:21:02;3.72;;;1.92;;
45254;SDS011;30989;52.078;21.014;2022-08-01T02:23:32;3.83;;;2.00;;
45254;SDS011;30989;52.078;21.014;2022-08-01T02:26:01;5.22;;;2.53;;
45254;SDS011;30989;52.078;21.014;2022-08-01T02:28:33;6.95;;;2.20;;
45254;SDS011;30989;52.078;21.014;2022-08-01T02:31:02;4.63;;;2.17;;
45254;SDS011;30989;52.078;21.014;2022-08-01T02:33:36;9.82;;;2.13;;
45254;SDS011;30989;52.078;21.014;2022-08-01T02:38:31;5.82;;;2.47;;
45254;SDS011;30989;52.078;21.014;2022-08-01T02:41:04;5.40;;;2.58;;
45254;SDS011;30989;52.078;21.014;2022-08-01T02:43:36;8.77;;;2.22;;
45254;SDS011;30989;52.078;21.014;2022-08-01T02:46:04;7.97;;;3.13;;
45254;SDS011;30989;52.078;21.014;2022-08-01T02:48:33;3.95;;;2.10;;
45254;SDS011;30989;52.078;21.014;2022-08-01T02:51:01;5.78;;;2.50;;
45254;SDS011;30989;52.078;21.014;2022-08-01T02:53:30;4.43;;;2.10;;
45254;SDS011;30989;52.078;21.014;2022-08-01T02:55:57;15.32;;;2.53;;
45254;SDS011;30989;52.078;21.014;2022-08-01T02:58:24;8.40;;;2.60;;
45254;SDS011;30989;52.078;21.014;2022-08-01T03:00:51;12.93;;;2.72;;
45254;SDS011;30989;52.078;21.014;2022-08-01T03:03:18;9.98;;;3.25;;
45254;SDS011;30989;52.078;21.014;2022-08-01T03:05:44;7.13;;;2.90;;
45254;SDS011;30989;52.078;21.014;2022-08-01T03:08:11;10.05;;;2.90;;
45254;SDS011;30989;52.078;21.014;2022-08-01T03:10:40;5.30;;;2.88;;
45254;SDS011;30989;52.078;21.014;2022-08-01T03:13:09;5.07;;;2.08;;
45254;SDS011;30989;52.078;21.014;2022-08-01T03:15:37;7.00;;;2.13;;
45254;SDS011;30989;52.078;21.014;2022-08-01T03:18:04;5.22;;;2.28;;
45254;SDS011;30989;52.078;21.014;2022-08-01T03:20:33;11.07;;;2.33;;
45254;SDS011;30989;52.078;21.014;2022-08-01T03:23:03;8.30;;;4.03;;
45254;SDS011;30989;52.078;21.014;2022-08-01T03:25:34;5.40;;;2.80;;
45254;SDS011;30989;52.078;21.014;2022-08-01T03:28:03;5.47;;;1.92;;
45254;SDS011;30989;52.078;21.014;2022-08-01T03:30:31;4.63;;;2.13;;
45254;SDS011;30989;52.078;21.014;2022-08-01T03:32:58;6.28;;;3.10;;
45254;SDS011;30989;52.078;21.014;2022-08-01T03:35:29;8.20;;;3.10;;
45254;SDS011;30989;52.078;21.014;2022-08-01T03:37:58;8.90;;;3.90;;
45254;SDS011;30989;52.078;21.014;2022-08-01T03:42:59;7.50;;;3.10;;
45254;SDS011;30989;52.078;21.014;2022-08-01T03:45:30;4.85;;;2.63;;
45254;SDS011;30989;52.078;21.014;2022-08-01T03:48:01;13.18;;;3.83;;
45254;SDS011;30989;52.078;21.014;2022-08-01T03:50:30;9.52;;;2.13;;
45254;SDS011;30989;52.078;21.014;2022-08-01T03:52:59;11.73;;;2.95;;
45254;SDS011;30989;52.078;21.014;2022-08-01T03:55:27;9.95;;;3.22;;
45254;SDS011;30989;52.078;21.014;2022-08-01T03:57:55;4.35;;;2.80;;
45254;SDS011;30989;52.078;21.014;2022-08-01T04:00:21;11.93;;;2.95;;
45254;SDS011;30989;52.078;21.014;2022-08-01T04:02:48;5.00;;;3.15;;
45254;SDS011;30989;52.078;21.014;2022-08-01T04:05:17;6.47;;;3.28;;
45254;SDS011;30989;52.078;21.014;2022-08-01T04:07:49;7.68;;;3.70;;
45254;SDS011;30989;52.078;21.014;2022-08-01T04:10:23;6.15;;;2.92;;
45254;SDS011;30989;52.078;21.014;2022-08-01T04:12:49;6.40;;;2.45;;
45254;SDS011;30989;52.078;21.014;2022-08-01T04:15:15;9.45;;;2.80;;
45254;SDS011;30989;52.078;21.014;2022-08-01T04:17:41;6.95;;;3.53;;
45254;SDS011;30989;52.078;21.014;2022-08-01T04:20:07;9.10;;;2.67;;
45254;SDS011;30989;52.078;21.014;2022-08-01T04:22:33;6.05;;;3.22;;
45254;SDS011;30989;52.078;21.014;2022-08-01T04:25:02;7.32;;;2.40;;
45254;SDS011;30989;52.078;21.014;2022-08-01T04:27:37;19.60;;;2.85;;
45254;SDS011;30989;52.078;21.014;2022-08-01T04:30:05;6.53;;;3.13;;
45254;SDS011;30989;52.078;21.014;2022-08-01T04:32:34;7.13;;;3.20;;
45254;SDS011;30989;52.078;21.014;2022-08-01T04:35:04;6.57;;;3.13;;
45254;SDS011;30989;52.078;21.014;2022-08-01T04:37:32;4.15;;;2.83;;
45254;SDS011;30989;52.078;21.014;2022-08-01T04:40:03;6.10;;;2.95;;
45254;SDS011;30989;52.078;21.014;2022-08-01T04:42:31;8.38;;;3.10;;
45254;SDS011;30989;52.078;21.014;2022-08-01T04:44:57;8.23;;;2.85;;
45254;SDS011;30989;52.078;21.014;2022-08-01T04:47:23;7.97;;;2.83;;
45254;SDS011;30989;52.078;21.014;2022-08-01T04:49:54;6.20;;;3.20;;
45254;SDS011;30989;52.078;21.014;2022-08-01T04:52:21;6.13;;;2.83;;
45254;SDS011;30989;52.078;21.014;2022-08-01T04:54:47;7.10;;;2.95;;
45254;SDS011;30989;52.078;21.014;2022-08-01T04:57:12;6.30;;;3.17;;
45254;SDS011;30989;52.078;21.014;2022-08-01T04:59:38;8.07;;;3.70;;
45254;SDS011;30989;52.078;21.014;2022-08-01T05:02:17;9.48;;;3.55;;
45254;SDS011;30989;52.078;21.014;2022-08-01T05:04:44;7.45;;;3.35;;
45254;SDS011;30989;52.078;21.014;2022-08-01T05:07:10;7.07;;;3.17;;
45254;SDS011;30989;52.078;21.014;2022-08-01T05:09:38;18.08;;;3.45;;
45254;SDS011;30989;52.078;21.014;2022-08-01T05:12:06;5.45;;;2.70;;
45254;SDS011;30989;52.078;21.014;2022-08-01T05:14:33;5.55;;;3.00;;
45254;SDS011;30989;52.078;21.014;2022-08-01T05:16:59;8.88;;;2.83;;
45254;SDS011;30989;52.078;21.014;2022-08-01T05:19:28;6.28;;;2.40;;
45254;SDS011;30989;52.078;21.014;2022-08-01T05:21:58;7.53;;;3.53;;
45254;SDS011;30989;52.078;21.014;2022-08-01T05:24:28;6.45;;;3.00;;
45254;SDS011;30989;52.078;21.014;2022-08-01T05:26:54;11.63;;;3.90;;
45254;SDS011;30989;52.078;21.014;2022-08-01T05:29:20;7.95;;;3.28;;
45254;SDS011;30989;52.078;21.014;2022-08-01T05:31:46;11.90;;;3.58;;
45254;SDS011;30989;52.078;21.014;2022-08-01T05:34:11;9.88;;;3.30;;
45254;SDS011;30989;52.078;21.014;2022-08-01T05:36:37;12.82;;;3.85;;
45254;SDS011;30989;52.078;21.014;2022-08-01T05:39:03;14.65;;;3.30;;
45254;SDS011;30989;52.078;21.014;2022-08-01T05:41:29;6.68;;;3.65;;
45254;SDS011;30989;52.078;21.014;2022-08-01T05:43:55;6.35;;;3.75;;
45254;SDS011;30989;52.078;21.014;2022-08-01T05:46:21;6.82;;;3.35;;
45254;SDS011;30989;52.078;21.014;2022-08-01T05:48:47;9.35;;;3.20;;
45254;SDS011;30989;52.078;21.014;2022-08-01T05:51:12;5.35;;;3.33;;
45254;SDS011;30989;52.078;21.014;2022-08-01T05:53:38;5.85;;;3.33;;
45254;SDS011;30989;52.078;21.014;2022-08-01T05:56:04;8.77;;;3.53;;
45254;SDS011;30989;52.078;21.014;2022-08-01T05:58:30;5.45;;;3.05;;
45254;SDS011;30989;52.078;21.014;2022-08-01T06:00:55;6.32;;;3.42;;
45254;SDS011;30989;52.078;21.014;2022-08-01T06:03:21;10.40;;;3.28;;
45254;SDS011;30989;52.078;21.014;2022-08-01T06:05:46;8.38;;;3.75;;
45254;SDS011;30989;52.078;21.014;2022-08-01T06:08:12;5.15;;;2.92;;
45254;SDS011;30989;52.078;21.014;2022-08-01T06:10:37;7.75;;;3.28;;
45254;SDS011;30989;52.078;21.014;2022-08-01T06:13:03;7.05;;;2.67;;
45254;SDS011;30989;52.078;21.014;2022-08-01T06:15:29;8.48;;;3.47;;
45254;SDS011;30989;52.078;21.014;2022-08-01T06:17:56;7.22;;;2.95;;
45254;SDS011;30989;52.078;21.014;2022-08-01T06:20:22;7.18;;;3.22;;
45254;SDS011;30989;52.078;21.014;2022-08-01T06:22:47;9.20;;;4.32;;
45254;SDS011;30989;52.078;21.014;2022-08-01T06:25:13;9.40;;;2.95;;
45254;SDS011;30989;52.078;21.014;2022-08-01T06:27:38;5.40;;;2.67;;
45254;SDS011;30989;52.078;21.014;2022-08-01T06:30:04;6.30;;;2.90;;
45254;SDS011;30989;52.078;21.014;2022-08-01T06:34:58;6.05;;;2.47;;
45254;SDS011;30989;52.078;21.014;2022-08-01T06:37:27;7.55;;;3.38;;
45254;SDS011;30989;52.078;21.014;2022-08-01T06:39:54;4.60;;;2.00;;
45254;SDS011;30989;52.078;21.014;2022-08-01T06:42:19;5.40;;;2.30;;
45254;SDS011;30989;52.078;21.014;2022-08-01T06:44:45;6.00;;;2.53;;
45254;SDS011;30989;52.078;21.014;2022-08-01T06:47:10;6.53;;;2.60;;
45254;SDS011;30989;52.078;21.014;2022-08-01T06:49:36;6.75;;;2.85;;
45254;SDS011;30989;52.078;21.014;2022-08-01T06:52:02;5.80;;;2.38;;
45254;SDS011;30989;52.078;21.014;2022-08-01T06:54:28;4.00;;;2.00;;
45254;SDS011;30989;52.078;21.014;2022-08-01T06:56:54;6.97;;;2.40;;
45254;SDS011;30989;52.078;21.014;2022-08-01T06:59:19;5.55;;;2.22;;
45254;SDS011;30989;52.078;21.014;2022-08-01T07:01:45;5.68;;;2.42;;
45254;SDS011;30989;52.078;21.014;2022-08-01T07:04:10;7.68;;;4.18;;
45254;SDS011;30989;52.078;21.014;2022-08-01T07:06:36;9.57;;;2.25;;
45254;SDS011;30989;52.078;21.014;2022-08-01T07:09:01;3.67;;;1.90;;
45254;SDS011;30989;52.078;21.014;2022-08-01T07:11:31;7.75;;;2.42;;
45254;SDS011;30989;52.078;21.014;2022-08-01T07:13:56;5.80;;;1.75;;
45254;SDS011;30989;52.078;21.014;2022-08-01T07:16:22;4.57;;;2.33;;
45254;SDS011;30989;52.078;21.014;2022-08-01T07:18:47;4.68;;;1.88;;
45254;SDS011;30989;52.078;21.014;2022-08-01T07:21:13;7.07;;;2.40;;
45254;SDS011;30989;52.078;21.014;2022-08-01T07:23:38;7.97;;;2.30;;
45254;SDS011;30989;52.078;21.014;2022-08-01T07:26:04;7.88;;;1.90;;
45254;SDS011;30989;52.078;21.014;2022-08-01T07:28:30;4.57;;;1.90;;
45254;SDS011;30989;52.078;21.014;2022-08-01T07:30:56;3.63;;;2.47;;
45254;SDS011;30989;52.078;21.014;2022-08-01T07:33:21;4.57;;;1.92;;
45254;SDS011;30989;52.078;21.014;2022-08-01T07:35:47;5.78;;;1.90;;
45254;SDS011;30989;52.078;21.014;2022-08-01T07:38:13;4.75;;;1.88;;
45254;SDS011;30989;52.078;21.014;2022-08-01T07:40:42;9.23;;;3.15;;
45254;SDS011;30989;52.078;21.014;2022-08-01T07:43:09;4.13;;;1.63;;
45254;SDS011;30989;52.078;21.014;2022-08-01T07:45:34;6.03;;;1.90;;
45254;SDS011;30989;52.078;21.014;2022-08-01T07:48:04;5.85;;;1.50;;
45254;SDS011;30989;52.078;21.014;2022-08-01T07:50:30;3.78;;;1.90;;
45254;SDS011;30989;52.078;21.014;2022-08-01T07:52:55;3.63;;;1.65;;
45254;SDS011;30989;52.078;21.014;2022-08-01T07:55:21;5.03;;;1.50;;
45254;SDS011;30989;52.078;21.014;2022-08-01T07:57:46;2.58;;;1.33;;
45254;SDS011;30989;52.078;21.014;2022-08-01T08:00:12;4.45;;;1.25;;
45254;SDS011;30989;52.078;21.014;2022-08-01T08:02:38;7.32;;;1.80;;
45254;SDS011;30989;52.078;21.014;2022-08-01T08:05:04;4.82;;;1.63;;
45254;SDS011;30989;52.078;21.014;2022-08-01T08:07:30;3.85;;;1.55;;
45254;SDS011;30989;52.078;21.014;2022-08-01T08:09:55;4.18;;;1.40;;
45254;SDS011;30989;52.078;21.014;2022-08-01T08:12:21;3.45;;;1.40;;
45254;SDS011;30989;52.078;21.014;2022-08-01T08:14:47;7.93;;;1.30;;
45254;SDS011;30989;52.078;21.014;2022-08-01T08:17:12;3.83;;;1.52;;
45254;SDS011;30989;52.078;21.014;2022-08-01T08:19:38;3.10;;;1.20;;
45254;SDS011;30989;52.078;21.014;2022-08-01T08:22:05;4.38;;;1.60;;
45254;SDS011;30989;52.078;21.014;2022-08-01T08:24:32;2.60;;;1.30;;
45254;SDS011;30989;52.078;21.014;2022-08-01T08:26:59;5.93;;;1.40;;
45254;SDS011;30989;52.078;21.014;2022-08-01T08:29:26;2.58;;;1.48;;
45254;SDS011;30989;52.078;21.014;2022-08-01T08:31:54;2.95;;;1.25;;
45254;SDS011;30989;52.078;21.014;2022-08-01T08:34:21;4.15;;;1.80;;
45254;SDS011;30989;52.078;21.014;2022-08-01T08:36:47;2.60;;;1.80;;
45254;SDS011;30989;52.078;21.014;2022-08-01T08:39:16;4.18;;;1.10;;
45254;SDS011;30989;52.078;21.014;2022-08-01T08:41:42;2.63;;;1.20;;
45254;SDS011;30989;52.078;21.014;2022-08-01T08:44:08;1.67;;;0.73;;
45254;SDS011;30989;52.078;21.014;2022-08-01T08:46:35;2.10;;;1.00;;
45254;SDS011;30989;52.078;21.014;2022-08-01T08:49:06;2.35;;;1.00;;
45254;SDS011;30989;52.078;21.014;2022-08-01T08:51:35;2.60;;;0.95;;
45254;SDS011;30989;52.078;21.014;2022-08-01T08:54:03;3.85;;;1.10;;
45254;SDS011;30989;52.078;21.014;2022-08-01T08:56:31;3.67;;;1.40;;
45254;SDS011;30989;52.078;21.014;2022-08-01T08:58:59;6.95;;;1.15;;
45254;SDS011;30989;52.078;21.014;2022-08-01T09:01:25;2.50;;;0.82;;
45254;SDS011;30989;52.078;21.014;2022-08-01T09:03:51;1.85;;;0.80;;
45254;SDS011;30989;52.078;21.014;2022-08-01T09:06:16;5.22;;;1.10;;
45254;SDS011;30989;52.078;21.014;2022-08-01T09:08:42;2.92;;;0.90;;
45254;SDS011;30989;52.078;21.014;2022-08-01T09:11:08;4.25;;;0.80;;
45254;SDS011;30989;52.078;21.014;2022-08-01T09:13:33;4.93;;;1.10;;
45254;SDS011;30989;52.078;21.014;2022-08-01T09:15:59;3.85;;;1.00;;
45254;SDS011;30989;52.078;21.014;2022-08-01T09:18:29;4.85;;;1.42;;
45254;SDS011;30989;52.078;21.014;2022-08-01T09:23:47;1.88;;;0.88;;
45254;SDS011;30989;52.078;21.014;2022-08-01T09:26:16;2.03;;;1.17;;
45254;SDS011;30989;52.078;21.014;2022-08-01T09:29:00;1.48;;;0.80;;
45254;SDS011;30989;52.078;21.014;2022-08-01T09:31:29;3.35;;;0.80;;
45254;SDS011;30989;52.078;21.014;2022-08-01T09:36:23;3.80;;;2.45;;
45254;SDS011;30989;52.078;21.014;2022-08-01T09:39:11;3.75;;;0.70;;
45254;SDS011;30989;52.078;21.014;2022-08-01T09:41:38;2.63;;;0.90;;
45254;SDS011;30989;52.078;21.014;2022-08-01T09:44:03;4.50;;;0.90;;
45254;SDS011;30989;52.078;21.014;2022-08-01T09:46:29;4.45;;;1.13;;
45254;SDS011;30989;52.078;21.014;2022-08-01T09:48:55;2.42;;;1.05;;
45254;SDS011;30989;52.078;21.014;2022-08-01T09:51:29;2.88;;;1.00;;
45254;SDS011;30989;52.078;21.014;2022-08-01T09:53:56;3.63;;;1.17;;
45254;SDS011;30989;52.078;21.014;2022-08-01T09:56:21;6.57;;;1.23;;
45254;SDS011;30989;52.078;21.014;2022-08-01T10:01:17;2.58;;;0.80;;
45254;SDS011;30989;52.078;21.014;2022-08-01T10:03:45;1.73;;;0.82;;
45254;SDS011;30989;52.078;21.014;2022-08-01T10:06:20;2.33;;;1.17;;
45254;SDS011;30989;52.078;21.014;2022-08-01T10:08:47;2.10;;;1.10;;
45254;SDS011;30989;52.078;21.014;2022-08-01T10:11:13;2.97;;;1.00;;
45254;SDS011;30989;52.078;21.014;2022-08-01T10:13:38;2.67;;;1.05;;
45254;SDS011;30989;52.078;21.014;2022-08-01T10:16:05;2.25;;;1.10;;
45254;SDS011;30989;52.078;21.014;2022-08-01T10:18:32;2.55;;;1.25;;
45254;SDS011;30989;52.078;21.014;2022-08-01T10:20:59;4.68;;;1.15;;
45254;SDS011;30989;52.078;21.014;2022-08-01T10:23:26;4.00;;;1.30;;
45254;SDS011;30989;52.078;21.014;2022-08-01T10:25:54;3.00;;;1.40;;
45254;SDS011;30989;52.078;21.014;2022-08-01T10:28:20;3.38;;;1.50;;
45254;SDS011;30989;52.078;21.014;2022-08-01T10:30:47;3.72;;;0.95;;
45254;SDS011;30989;52.078;21.014;2022-08-01T10:33:14;7.13;;;1.50;;
45254;SDS011;30989;52.078;21.014;2022-08-01T10:35:42;4.72;;;1.27;;
45254;SDS011;30989;52.078;21.014;2022-08-01T10:38:10;3.58;;;1.40;;
45254;SDS011;30989;52.078;21.014;2022-08-01T10:40:36;2.22;;;1.25;;
45254;SDS011;30989;52.078;21.014;2022-08-01T10:43:05;3.30;;;1.35;;
45254;SDS011;30989;52.078;21.014;2022-08-01T10:45:34;10.20;;;1.90;;
45254;SDS011;30989;52.078;21.014;2022-08-01T10:48:06;3.50;;;1.58;;
45254;SDS011;30989;52.078;21.014;2022-08-01T10:53:19;4.15;;;1.50;;
45254;SDS011;30989;52.078;21.014;2022-08-01T10:58:38;2.35;;;1.10;;
45254;SDS011;30989;52.078;21.014;2022-08-01T11:01:25;3.33;;;1.30;;
45254;SDS011;30989;52.078;21.014;2022-08-01T11:04:02;3.60;;;1.40;;
45254;SDS011;30989;52.078;21.014;2022-08-01T11:06:40;3.63;;;1.83;;
45254;SDS011;30989;52.078;21.014;2022-08-01T11:15:15;2.80;;;1.10;;
45254;SDS011;30989;52.078;21.014;2022-08-01T11:17:39;6.70;;;1.75;;
45254;SDS011;30989;52.078;21.014;2022-08-01T11:20:26;4.13;;;1.40;;
45254;SDS011;30989;52.078;21.014;2022-08-01T11:30:39;4.50;;;1.48;;
45254;SDS011;30989;52.078;21.014;2022-08-01T11:33:05;2.17;;;1.10;;
45254;SDS011;30989;52.078;21.014;2022-08-01T11:35:31;6.30;;;3.15;;
45254;SDS011;30989;52.078;21.014;2022-08-01T11:38:21;2.92;;;1.40;;
45254;SDS011;30989;52.078;21.014;2022-08-01T11:41:09;6.15;;;1.92;;
45254;SDS011;30989;52.078;21.014;2022-08-01T11:43:53;3.05;;;1.50;;
45254;SDS011;30989;52.078;21.014;2022-08-01T11:52:16;2.65;;;1.42;;
45254;SDS011;30989;52.078;21.014;2022-08-01T11:57:40;3.70;;;1.80;;
45254;SDS011;30989;52.078;21.014;2022-08-01T12:00:16;4.00;;;1.80;;
45254;SDS011;30989;52.078;21.014;2022-08-01T12:02:44;5.03;;;1.58;;
45254;SDS011;30989;52.078;21.014;2022-08-01T12:05:15;2.63;;;1.60;;
45254;SDS011;30989;52.078;21.014;2022-08-01T12:07:47;4.53;;;1.45;;
45254;SDS011;30989;52.078;21.014;2022-08-01T12:10:16;3.40;;;1.20;;
45254;SDS011;30989;52.078;21.014;2022-08-01T12:12:49;3.40;;;1.85;;
45254;SDS011;30989;52.078;21.014;2022-08-01T12:15:21;5.43;;;1.98;;
45254;SDS011;30989;52.078;21.014;2022-08-01T12:17:49;3.17;;;1.55;;
45254;SDS011;30989;52.078;21.014;2022-08-01T12:20:20;3.25;;;1.52;;
45254;SDS011;30989;52.078;21.014;2022-08-01T12:22:47;13.82;;;6.15;;
45254;SDS011;30989;52.078;21.014;2022-08-01T12:25:17;2.80;;;1.50;;
45254;SDS011;30989;52.078;21.014;2022-08-01T12:27:45;2.30;;;1.52;;
45254;SDS011;30989;52.078;21.014;2022-08-01T12:30:12;4.32;;;1.58;;
45254;SDS011;30989;52.078;21.014;2022-08-01T12:32:40;3.10;;;1.45;;
45254;SDS011;30989;52.078;21.014;2022-08-01T12:35:09;3.53;;;1.33;;
45254;SDS011;30989;52.078;21.014;2022-08-01T12:37:38;6.43;;;1.48;;
45254;SDS011;30989;52.078;21.014;2022-08-01T12:40:16;3.15;;;1.50;;
45254;SDS011;30989;52.078;21.014;2022-08-01T12:42:52;3.03;;;1.55;;
45254;SDS011;30989;52.078;21.014;2022-08-01T12:45:21;3.40;;;1.27;;
45254;SDS011;30989;52.078;21.014;2022-08-01T12:47:49;6.97;;;1.60;;
45254;SDS011;30989;52.078;21.014;2022-08-01T12:50:18;3.05;;;1.00;;
45254;SDS011;30989;52.078;21.014;2022-08-01T12:52:46;2.47;;;1.20;;
45254;SDS011;30989;52.078;21.014;2022-08-01T12:55:17;1.92;;;1.08;;
45254;SDS011;30989;52.078;21.014;2022-08-01T12:57:45;3.17;;;1.35;;
45254;SDS011;30989;52.078;21.014;2022-08-01T13:00:24;2.40;;;1.55;;
45254;SDS011;30989;52.078;21.014;2022-08-01T13:03:04;2.70;;;1.30;;
45254;SDS011;30989;52.078;21.014;2022-08-01T13:05:40;2.08;;;1.20;;
45254;SDS011;30989;52.078;21.014;2022-08-01T13:08:13;2.25;;;1.00;;
45254;SDS011;30989;52.078;21.014;2022-08-01T13:10:41;4.90;;;1.33;;
45254;SDS011;30989;52.078;21.014;2022-08-01T13:13:07;3.92;;;1.05;;
45254;SDS011;30989;52.078;21.014;2022-08-01T13:15:35;2.33;;;1.00;;
45254;SDS011;30989;52.078;21.014;2022-08-01T13:18:21;3.15;;;0.98;;
45254;SDS011;30989;52.078;21.014;2022-08-01T13:21:06;2.80;;;1.25;;
45254;SDS011;30989;52.078;21.014;2022-08-01T13:23:35;3.50;;;1.40;;
45254;SDS011;30989;52.078;21.014;2022-08-01T13:26:02;1.92;;;1.00;;
45254;SDS011;30989;52.078;21.014;2022-08-01T13:28:28;3.28;;;1.10;;
45254;SDS011;30989;52.078;21.014;2022-08-01T13:31:07;3.15;;;1.73;;
45254;SDS011;30989;52.078;21.014;2022-08-01T13:33:46;5.47;;;0.90;;
45254;SDS011;30989;52.078;21.014;2022-08-01T13:36:13;1.50;;;0.80;;
45254;SDS011;30989;52.078;21.014;2022-08-01T13:38:41;5.07;;;1.00;;
45254;SDS011;30989;52.078;21.014;2022-08-01T13:41:25;4.43;;;1.00;;
45254;SDS011;30989;52.078;21.014;2022-08-01T13:43:51;4.13;;;1.08;;
45254;SDS011;30989;52.078;21.014;2022-08-01T13:46:17;3.60;;;1.20;;
45254;SDS011;30989;52.078;21.014;2022-08-01T13:48:43;1.92;;;1.02;;
45254;SDS011;30989;52.078;21.014;2022-08-01T13:51:09;5.03;;;1.13;;
45254;SDS011;30989;52.078;21.014;2022-08-01T13:53:35;2.75;;;1.17;;
45254;SDS011;30989;52.078;21.014;2022-08-01T13:56:01;2.28;;;1.17;;
45254;SDS011;30989;52.078;21.014;2022-08-01T13:58:26;1.80;;;0.90;;
45254;SDS011;30989;52.078;21.014;2022-08-01T14:00:53;2.13;;;0.85;;
45254;SDS011;30989;52.078;21.014;2022-08-01T14:03:19;2.50;;;0.90;;
45254;SDS011;30989;52.078;21.014;2022-08-01T14:05:45;4.88;;;1.10;;
45254;SDS011;30989;52.078;21.014;2022-08-01T14:08:11;1.30;;;0.60;;
45254;SDS011;30989;52.078;21.014;2022-08-01T14:10:37;2.53;;;0.93;;
45254;SDS011;30989;52.078;21.014;2022-08-01T14:13:02;1.08;;;0.68;;
45254;SDS011;30989;52.078;21.014;2022-08-01T14:15:28;2.50;;;0.90;;
45254;SDS011;30989;52.078;21.014;2022-08-01T14:17:53;3.97;;;0.98;;
45254;SDS011;30989;52.078;21.014;2022-08-01T14:20:19;2.13;;;0.93;;
45254;SDS011;30989;52.078;21.014;2022-08-01T14:22:45;1.85;;;0.70;;
45254;SDS011;30989;52.078;21.014;2022-08-01T14:25:11;3.63;;;0.93;;
45254;SDS011;30989;52.078;21.014;2022-08-01T14:27:37;2.70;;;0.95;;
45254;SDS011;30989;52.078;21.014;2022-08-01T14:30:05;2.25;;;0.93;;
45254;SDS011;30989;52.078;21.014;2022-08-01T14:32:31;2.40;;;0.90;;
45254;SDS011;30989;52.078;21.014;2022-08-01T14:34:58;2.45;;;1.00;;
45254;SDS011;30989;52.078;21.014;2022-08-01T14:37:25;2.70;;;1.52;;
45254;SDS011;30989;52.078;21.014;2022-08-01T14:39:50;2.72;;;0.80;;
45254;SDS011;30989;52.078;21.014;2022-08-01T14:42:16;11.18;;;1.67;;
45254;SDS011;30989;52.078;21.014;2022-08-01T14:44:41;6.13;;;1.33;;
45254;SDS011;30989;52.078;21.014;2022-08-01T14:47:07;1.70;;;1.00;;
45254;SDS011;30989;52.078;21.014;2022-08-01T14:49:32;3.28;;;1.10;;
45254;SDS011;30989;52.078;21.014;2022-08-01T14:51:58;3.33;;;1.00;;
45254;SDS011;30989;52.078;21.014;2022-08-01T14:54:23;5.25;;;1.55;;
45254;SDS011;30989;52.078;21.014;2022-08-01T14:56:48;3.17;;;1.30;;
45254;SDS011;30989;52.078;21.014;2022-08-01T14:59:14;3.50;;;1.10;;
45254;SDS011;30989;52.078;21.014;2022-08-01T15:01:39;2.60;;;0.90;;
45254;SDS011;30989;52.078;21.014;2022-08-01T15:04:05;3.17;;;1.20;;
45254;SDS011;30989;52.078;21.014;2022-08-01T15:06:31;2.83;;;1.00;;
45254;SDS011;30989;52.078;21.014;2022-08-01T15:08:56;3.08;;;1.35;;
45254;SDS011;30989;52.078;21.014;2022-08-01T15:11:22;3.15;;;1.10;;
45254;SDS011;30989;52.078;21.014;2022-08-01T15:13:48;2.33;;;1.20;;
45254;SDS011;30989;52.078;21.014;2022-08-01T15:16:33;4.25;;;1.23;;
45254;SDS011;30989;52.078;21.014;2022-08-01T15:18:59;2.95;;;1.33;;
45254;SDS011;30989;52.078;21.014;2022-08-01T15:21:24;2.97;;;1.10;;
45254;SDS011;30989;52.078;21.014;2022-08-01T15:23:49;5.43;;;1.42;;
45254;SDS011;30989;52.078;21.014;2022-08-01T15:26:15;2.30;;;1.00;;
45254;SDS011;30989;52.078;21.014;2022-08-01T15:28:40;2.60;;;1.40;;